Weather at Tatenhill Airfield

Public forecast

Using degrees Celsius for public forecast. Weather courtesy of forecast.io.

Closest aviation weather report (METAR) to Tatenhill Airfield

Closest report is East Midlands Airport, 15.7 nm (29.2 km) E. Retrieved 2020/12/02 09:20 UTC (0 seconds ago):

EGNX 020920Z 22010KT 8000 BKN018 06/05 Q1018

Closest aviation forecast (TAF) to Tatenhill Airfield

Closest forecast is East Midlands Airport, 15.7 nm (29.2 km) E. Retrieved 2020/12/02 06:00 UTC (3 hours ago):

TAF EGNX 020500Z 0206/0306 26005KT 9999 SCT020 TEMPO 0206/0215 7000 -RADZ BKN012 PROB30 TEMPO 0210/0214 4000 RADZ BKN007 TEMPO 0303/0306 BKN014